sensor_id;sensor_type;location;lat;lon;timestamp;temperature;humidity
11577;DHT22;5844;51.496;6.788;2022-09-09T00:03:47;15.30;99.90
11577;DHT22;5844;51.496;6.788;2022-09-09T00:06:26;15.40;99.90
11577;DHT22;5844;51.496;6.788;2022-09-09T00:08:58;15.40;99.90
11577;DHT22;5844;51.496;6.788;2022-09-09T00:17:02;15.50;99.90
11577;DHT22;5844;51.496;6.788;2022-09-09T00:19:41;15.50;99.90
11577;DHT22;5844;51.496;6.788;2022-09-09T00:22:16;15.50;99.90
11577;DHT22;5844;51.496;6.788;2022-09-09T00:24:46;15.50;99.90
11577;DHT22;5844;51.496;6.788;2022-09-09T00:27:23;15.40;99.90
11577;DHT22;5844;51.496;6.788;2022-09-09T00:30:16;15.30;99.90
11577;DHT22;5844;51.496;6.788;2022-09-09T00:32:46;15.30;99.90
11577;DHT22;5844;51.496;6.788;2022-09-09T00:35:24;15.20;99.90
11577;DHT22;5844;51.496;6.788;2022-09-09T00:37:53;15.20;99.90
11577;DHT22;5844;51.496;6.788;2022-09-09T00:40:34;15.30;99.90
11577;DHT22;5844;51.496;6.788;2022-09-09T00:47:55;15.20;99.90
11577;DHT22;5844;51.496;6.788;2022-09-09T00:50:48;15.20;99.90
11577;DHT22;5844;51.496;6.788;2022-09-09T00:56:42;15.30;99.90
11577;DHT22;5844;51.496;6.788;2022-09-09T00:59:23;15.30;99.90
11577;DHT22;5844;51.496;6.788;2022-09-09T01:01:51;15.30;99.90
11577;DHT22;5844;51.496;6.788;2022-09-09T01:04:27;15.30;99.90
11577;DHT22;5844;51.496;6.788;2022-09-09T01:07:03;15.20;99.90
11577;DHT22;5844;51.496;6.788;2022-09-09T01:09:38;15.20;99.90
11577;DHT22;5844;51.496;6.788;2022-09-09T01:14:50;15.20;99.90
11577;DHT22;5844;51.496;6.788;2022-09-09T01:17:21;15.20;99.90
11577;DHT22;5844;51.496;6.788;2022-09-09T01:22:52;15.20;99.90
11577;DHT22;5844;51.496;6.788;2022-09-09T01:28:27;15.00;99.90
11577;DHT22;5844;51.496;6.788;2022-09-09T01:30:55;15.00;99.90
11577;DHT22;5844;51.496;6.788;2022-09-09T01:33:21;15.00;99.90
11577;DHT22;5844;51.496;6.788;2022-09-09T01:35:54;14.90;99.90
11577;DHT22;5844;51.496;6.788;2022-09-09T01:38:22;14.90;99.90
11577;DHT22;5844;51.496;6.788;2022-09-09T01:40:49;14.90;99.90
11577;DHT22;5844;51.496;6.788;2022-09-09T01:43:18;14.90;99.90
11577;DHT22;5844;51.496;6.788;2022-09-09T01:45:46;14.80;99.90
11577;DHT22;5844;51.496;6.788;2022-09-09T01:48:13;14.80;99.90
11577;DHT22;5844;51.496;6.788;2022-09-09T01:50:39;14.80;99.90
11577;DHT22;5844;51.496;6.788;2022-09-09T01:53:05;14.80;99.90
11577;DHT22;5844;51.496;6.788;2022-09-09T01:55:40;14.80;99.90
11577;DHT22;5844;51.496;6.788;2022-09-09T02:00:36;14.80;99.90
11577;DHT22;5844;51.496;6.788;2022-09-09T02:03:27;14.90;99.90
11577;DHT22;5844;51.496;6.788;2022-09-09T02:06:00;15.00;99.90
11577;DHT22;5844;51.496;6.788;2022-09-09T02:08:43;15.00;99.90
11577;DHT22;5844;51.496;6.788;2022-09-09T02:11:14;15.10;99.90
11577;DHT22;5844;51.496;6.788;2022-09-09T02:13:43;15.10;99.90
11577;DHT22;5844;51.496;6.788;2022-09-09T02:16:23;15.10;99.90
11577;DHT22;5844;51.496;6.788;2022-09-09T02:21:34;15.00;99.90
11577;DHT22;5844;51.496;6.788;2022-09-09T02:24:04;15.10;99.90
11577;DHT22;5844;51.496;6.788;2022-09-09T02:26:32;15.10;99.90
11577;DHT22;5844;51.496;6.788;2022-09-09T02:29:00;15.10;99.90
11577;DHT22;5844;51.496;6.788;2022-09-09T02:31:27;15.20;99.90
11577;DHT22;5844;51.496;6.788;2022-09-09T02:33:58;15.20;99.90
11577;DHT22;5844;51.496;6.788;2022-09-09T02:36:28;15.20;99.90
11577;DHT22;5844;51.496;6.788;2022-09-09T02:38:54;15.30;99.90
11577;DHT22;5844;51.496;6.788;2022-09-09T02:41:25;15.30;99.90
11577;DHT22;5844;51.496;6.788;2022-09-09T02:43:51;15.40;99.90
11577;DHT22;5844;51.496;6.788;2022-09-09T02:49:09;15.40;99.90
11577;DHT22;5844;51.496;6.788;2022-09-09T02:51:47;15.40;99.90
11577;DHT22;5844;51.496;6.788;2022-09-09T02:54:27;15.40;99.90
11577;DHT22;5844;51.496;6.788;2022-09-09T02:57:11;15.30;99.90
11577;DHT22;5844;51.496;6.788;2022-09-09T02:59:38;15.30;99.90
11577;DHT22;5844;51.496;6.788;2022-09-09T03:02:04;15.30;99.90
11577;DHT22;5844;51.496;6.788;2022-09-09T03:04:30;15.20;99.90
11577;DHT22;5844;51.496;6.788;2022-09-09T03:06:57;15.20;99.90
11577;DHT22;5844;51.496;6.788;2022-09-09T03:09:23;15.20;99.90
11577;DHT22;5844;51.496;6.788;2022-09-09T03:11:50;15.20;99.90
11577;DHT22;5844;51.496;6.788;2022-09-09T03:14:16;15.20;99.90
11577;DHT22;5844;51.496;6.788;2022-09-09T03:16:42;15.20;99.90
11577;DHT22;5844;51.496;6.788;2022-09-09T03:19:11;15.10;99.90
11577;DHT22;5844;51.496;6.788;2022-09-09T03:21:37;15.20;99.90
11577;DHT22;5844;51.496;6.788;2022-09-09T03:24:02;15.10;99.90
11577;DHT22;5844;51.496;6.788;2022-09-09T03:26:29;15.10;99.90
11577;DHT22;5844;51.496;6.788;2022-09-09T03:28:56;15.20;99.90
11577;DHT22;5844;51.496;6.788;2022-09-09T03:31:22;15.20;99.90
11577;DHT22;5844;51.496;6.788;2022-09-09T03:33:47;15.20;99.90
11577;DHT22;5844;51.496;6.788;2022-09-09T03:36:14;15.30;99.90
11577;DHT22;5844;51.496;6.788;2022-09-09T03:38:40;15.30;99.90
11577;DHT22;5844;51.496;6.788;2022-09-09T03:41:06;15.30;99.90
11577;DHT22;5844;51.496;6.788;2022-09-09T03:43:33;15.40;99.90
11577;DHT22;5844;51.496;6.788;2022-09-09T03:45:59;15.40;99.90
11577;DHT22;5844;51.496;6.788;2022-09-09T03:48:25;15.40;99.90
11577;DHT22;5844;51.496;6.788;2022-09-09T03:50:53;15.40;99.90
11577;DHT22;5844;51.496;6.788;2022-09-09T03:53:21;15.30;99.90
11577;DHT22;5844;51.496;6.788;2022-09-09T03:55:51;15.30;99.90
11577;DHT22;5844;51.496;6.788;2022-09-09T03:58:20;15.30;99.90
11577;DHT22;5844;51.496;6.788;2022-09-09T04:00:54;15.20;99.90
11577;DHT22;5844;51.496;6.788;2022-09-09T04:03:20;15.20;99.90
11577;DHT22;5844;51.496;6.788;2022-09-09T04:05:49;15.20;99.90
11577;DHT22;5844;51.496;6.788;2022-09-09T04:08:14;15.20;99.90
11577;DHT22;5844;51.496;6.788;2022-09-09T04:10:40;15.30;99.90
11577;DHT22;5844;51.496;6.788;2022-09-09T04:13:06;15.30;99.90
11577;DHT22;5844;51.496;6.788;2022-09-09T04:15:32;15.30;99.90
11577;DHT22;5844;51.496;6.788;2022-09-09T04:17:58;15.30;99.90
11577;DHT22;5844;51.496;6.788;2022-09-09T04:20:24;14.10;99.90
11577;DHT22;5844;51.496;6.788;2022-09-09T04:22:49;15.40;99.90
11577;DHT22;5844;51.496;6.788;2022-09-09T04:25:15;15.40;99.90
11577;DHT22;5844;51.496;6.788;2022-09-09T04:27:41;15.40;99.90
11577;DHT22;5844;51.496;6.788;2022-09-09T04:30:08;15.50;99.90
11577;DHT22;5844;51.496;6.788;2022-09-09T04:32:34;15.50;99.90
11577;DHT22;5844;51.496;6.788;2022-09-09T04:35:01;15.60;99.90
11577;DHT22;5844;51.496;6.788;2022-09-09T04:37:26;15.60;99.90
11577;DHT22;5844;51.496;6.788;2022-09-09T04:39:52;15.60;99.90
11577;DHT22;5844;51.496;6.788;2022-09-09T04:42:18;15.60;99.90
11577;DHT22;5844;51.496;6.788;2022-09-09T04:44:44;15.70;99.90
11577;DHT22;5844;51.496;6.788;2022-09-09T04:47:10;15.80;99.90
11577;DHT22;5844;51.496;6.788;2022-09-09T04:49:36;15.80;99.90
11577;DHT22;5844;51.496;6.788;2022-09-09T04:52:03;15.80;99.90
11577;DHT22;5844;51.496;6.788;2022-09-09T04:54:29;15.80;99.90
11577;DHT22;5844;51.496;6.788;2022-09-09T04:56:55;15.80;99.90
11577;DHT22;5844;51.496;6.788;2022-09-09T04:59:21;15.80;99.90
11577;DHT22;5844;51.496;6.788;2022-09-09T05:01:48;15.90;99.90
11577;DHT22;5844;51.496;6.788;2022-09-09T05:04:13;15.90;99.90
11577;DHT22;5844;51.496;6.788;2022-09-09T05:06:41;16.00;99.90
11577;DHT22;5844;51.496;6.788;2022-09-09T05:09:08;16.00;99.90
11577;DHT22;5844;51.496;6.788;2022-09-09T05:11:34;16.00;99.90
11577;DHT22;5844;51.496;6.788;2022-09-09T05:14:03;16.00;99.90
11577;DHT22;5844;51.496;6.788;2022-09-09T05:16:30;16.00;99.90
11577;DHT22;5844;51.496;6.788;2022-09-09T05:18:57;16.10;99.90
11577;DHT22;5844;51.496;6.788;2022-09-09T05:21:24;16.10;99.90
11577;DHT22;5844;51.496;6.788;2022-09-09T05:23:52;16.10;99.90
11577;DHT22;5844;51.496;6.788;2022-09-09T05:26:19;16.10;99.90
11577;DHT22;5844;51.496;6.788;2022-09-09T05:28:46;16.10;99.90
11577;DHT22;5844;51.496;6.788;2022-09-09T05:31:13;16.10;99.90
11577;DHT22;5844;51.496;6.788;2022-09-09T05:33:41;16.00;99.90
11577;DHT22;5844;51.496;6.788;2022-09-09T05:36:19;16.00;99.90
11577;DHT22;5844;51.496;6.788;2022-09-09T05:38:45;16.00;99.90
11577;DHT22;5844;51.496;6.788;2022-09-09T05:41:12;16.00;99.90
11577;DHT22;5844;51.496;6.788;2022-09-09T05:43:41;16.00;99.90
11577;DHT22;5844;51.496;6.788;2022-09-09T05:46:29;16.00;99.90
11577;DHT22;5844;51.496;6.788;2022-09-09T05:48:55;16.00;99.90
11577;DHT22;5844;51.496;6.788;2022-09-09T05:51:23;16.00;99.90
11577;DHT22;5844;51.496;6.788;2022-09-09T05:53:50;16.00;99.90
11577;DHT22;5844;51.496;6.788;2022-09-09T05:56:19;16.00;99.90
11577;DHT22;5844;51.496;6.788;2022-09-09T05:58:45;16.00;99.90
11577;DHT22;5844;51.496;6.788;2022-09-09T06:01:17;16.00;99.90
11577;DHT22;5844;51.496;6.788;2022-09-09T06:03:44;16.10;99.90
11577;DHT22;5844;51.496;6.788;2022-09-09T06:06:13;16.30;99.90
11577;DHT22;5844;51.496;6.788;2022-09-09T06:08:41;16.30;99.90
11577;DHT22;5844;51.496;6.788;2022-09-09T06:11:17;16.30;99.90
11577;DHT22;5844;51.496;6.788;2022-09-09T06:13:43;16.40;99.90
11577;DHT22;5844;51.496;6.788;2022-09-09T06:16:10;16.40;99.90
11577;DHT22;5844;51.496;6.788;2022-09-09T06:18:38;16.40;99.90
11577;DHT22;5844;51.496;6.788;2022-09-09T06:21:06;16.50;99.90
11577;DHT22;5844;51.496;6.788;2022-09-09T06:23:33;16.60;99.90
11577;DHT22;5844;51.496;6.788;2022-09-09T06:26:05;16.80;99.90
11577;DHT22;5844;51.496;6.788;2022-09-09T06:28:32;16.80;99.90
11577;DHT22;5844;51.496;6.788;2022-09-09T06:31:03;16.80;99.90
11577;DHT22;5844;51.496;6.788;2022-09-09T06:33:38;16.80;99.90
11577;DHT22;5844;51.496;6.788;2022-09-09T06:36:21;16.90;99.90
11577;DHT22;5844;51.496;6.788;2022-09-09T06:38:47;17.00;99.90
11577;DHT22;5844;51.496;6.788;2022-09-09T06:41:15;17.10;99.90
11577;DHT22;5844;51.496;6.788;2022-09-09T06:43:42;17.30;99.90
11577;DHT22;5844;51.496;6.788;2022-09-09T06:46:25;17.30;99.90
11577;DHT22;5844;51.496;6.788;2022-09-09T06:48:54;17.50;99.90
11577;DHT22;5844;51.496;6.788;2022-09-09T06:51:23;17.50;99.90
11577;DHT22;5844;51.496;6.788;2022-09-09T06:53:57;17.50;99.90
11577;DHT22;5844;51.496;6.788;2022-09-09T06:56:25;17.50;99.90
11577;DHT22;5844;51.496;6.788;2022-09-09T06:58:54;17.50;99.90
11577;DHT22;5844;51.496;6.788;2022-09-09T07:01:23;17.60;99.90
11577;DHT22;5844;51.496;6.788;2022-09-09T07:03:52;17.60;99.90
11577;DHT22;5844;51.496;6.788;2022-09-09T07:06:31;17.60;99.90
11577;DHT22;5844;51.496;6.788;2022-09-09T07:09:09;17.70;99.90
11577;DHT22;5844;51.496;6.788;2022-09-09T07:11:42;17.80;99.90
11577;DHT22;5844;51.496;6.788;2022-09-09T07:14:08;17.80;99.90
11577;DHT22;5844;51.496;6.788;2022-09-09T07:16:34;17.80;99.90
11577;DHT22;5844;51.496;6.788;2022-09-09T07:19:03;17.90;99.90
11577;DHT22;5844;51.496;6.788;2022-09-09T07:21:30;17.80;99.90
11577;DHT22;5844;51.496;6.788;2022-09-09T07:23:57;17.90;99.90
11577;DHT22;5844;51.496;6.788;2022-09-09T07:26:25;18.00;99.90
11577;DHT22;5844;51.496;6.788;2022-09-09T07:28:51;18.20;99.60
11577;DHT22;5844;51.496;6.788;2022-09-09T07:31:21;18.30;99.90
11577;DHT22;5844;51.496;6.788;2022-09-09T07:33:48;18.50;99.50
11577;DHT22;5844;51.496;6.788;2022-09-09T07:38:54;18.50;73.00
11577;DHT22;5844;51.496;6.788;2022-09-09T07:41:43;18.50;90.40
11577;DHT22;5844;51.496;6.788;2022-09-09T07:44:12;18.60;81.30
11577;DHT22;5844;51.496;6.788;2022-09-09T07:46:38;18.60;49.80
11577;DHT22;5844;51.496;6.788;2022-09-09T07:49:05;18.60;57.50
11577;DHT22;5844;51.496;6.788;2022-09-09T07:51:33;18.60;60.80
11577;DHT22;5844;51.496;6.788;2022-09-09T07:54:01;18.60;54.30
11577;DHT22;5844;51.496;6.788;2022-09-09T07:56:28;18.50;54.30
11577;DHT22;5844;51.496;6.788;2022-09-09T07:58:55;18.50;51.50
11577;DHT22;5844;51.496;6.788;2022-09-09T08:01:30;18.60;28.50
11577;DHT22;5844;51.496;6.788;2022-09-09T08:04:02;18.60;33.80
11577;DHT22;5844;51.496;6.788;2022-09-09T08:06:30;18.70;29.50
11577;DHT22;5844;51.496;6.788;2022-09-09T08:08:56;18.70;28.20
11577;DHT22;5844;51.496;6.788;2022-09-09T08:11:24;18.80;18.80
11577;DHT22;5844;51.496;6.788;2022-09-09T08:13:51;18.80;1.00
11577;DHT22;5844;51.496;6.788;2022-09-09T08:16:19;18.80;1.00
11577;DHT22;5844;51.496;6.788;2022-09-09T08:18:47;19.00;1.00
11577;DHT22;5844;51.496;6.788;2022-09-09T08:21:19;19.10;1.00
11577;DHT22;5844;51.496;6.788;2022-09-09T08:23:46;19.20;1.00
11577;DHT22;5844;51.496;6.788;2022-09-09T08:26:18;19.30;1.00
11577;DHT22;5844;51.496;6.788;2022-09-09T08:28:52;19.10;1.00
11577;DHT22;5844;51.496;6.788;2022-09-09T08:31:21;19.10;1.00
11577;DHT22;5844;51.496;6.788;2022-09-09T08:33:47;19.30;1.00
11577;DHT22;5844;51.496;6.788;2022-09-09T08:36:18;19.30;1.00
11577;DHT22;5844;51.496;6.788;2022-09-09T08:38:50;19.00;1.00
11577;DHT22;5844;51.496;6.788;2022-09-09T08:51:51;20.40;99.90
11577;DHT22;5844;51.496;6.788;2022-09-09T08:54:18;20.80;1.00
11577;DHT22;5844;51.496;6.788;2022-09-09T08:56:44;21.30;99.90
11577;DHT22;5844;51.496;6.788;2022-09-09T08:59:13;21.50;99.90
11577;DHT22;5844;51.496;6.788;2022-09-09T09:12:57;21.40;99.90
11577;DHT22;5844;51.496;6.788;2022-09-09T09:15:25;21.10;99.90
11577;DHT22;5844;51.496;6.788;2022-09-09T09:17:52;20.60;99.90
11577;DHT22;5844;51.496;6.788;2022-09-09T09:20:40;20.40;99.90
11577;DHT22;5844;51.496;6.788;2022-09-09T09:23:19;20.30;99.90
11577;DHT22;5844;51.496;6.788;2022-09-09T09:25:46;20.20;99.90
11577;DHT22;5844;51.496;6.788;2022-09-09T09:28:13;20.00;1.00
11577;DHT22;5844;51.496;6.788;2022-09-09T09:31:06;19.90;1.00
11577;DHT22;5844;51.496;6.788;2022-09-09T09:36:07;19.80;1.00
11577;DHT22;5844;51.496;6.788;2022-09-09T09:38:35;19.70;99.90
11577;DHT22;5844;51.496;6.788;2022-09-09T09:41:01;19.60;1.00
11577;DHT22;5844;51.496;6.788;2022-09-09T09:43:34;19.60;1.00
11577;DHT22;5844;51.496;6.788;2022-09-09T09:46:00;19.60;1.00
11577;DHT22;5844;51.496;6.788;2022-09-09T09:48:28;19.50;1.00
11577;DHT22;5844;51.496;6.788;2022-09-09T09:53:29;19.60;1.00
11577;DHT22;5844;51.496;6.788;2022-09-09T09:58:30;19.70;99.90
11577;DHT22;5844;51.496;6.788;2022-09-09T10:00:59;19.80;99.90
11577;DHT22;5844;51.496;6.788;2022-09-09T10:03:33;20.00;1.00
11577;DHT22;5844;51.496;6.788;2022-09-09T10:06:03;20.00;99.90
11577;DHT22;5844;51.496;6.788;2022-09-09T10:08:32;20.00;99.90
11577;DHT22;5844;51.496;6.788;2022-09-09T10:19:27;22.60;1.00
11577;DHT22;5844;51.496;6.788;2022-09-09T10:28:07;21.90;1.00
11577;DHT22;5844;51.496;6.788;2022-09-09T10:30:52;21.50;1.00
11577;DHT22;5844;51.496;6.788;2022-09-09T10:33:53;21.10;61.10
11577;DHT22;5844;51.496;6.788;2022-09-09T10:36:25;20.70;99.90
11577;DHT22;5844;51.496;6.788;2022-09-09T10:39:32;20.40;99.90
11577;DHT22;5844;51.496;6.788;2022-09-09T10:42:09;20.30;99.90
11577;DHT22;5844;51.496;6.788;2022-09-09T10:56:52;20.00;99.90
11577;DHT22;5844;51.496;6.788;2022-09-09T10:59:24;20.00;99.90
11577;DHT22;5844;51.496;6.788;2022-09-09T11:02:03;20.00;99.90
11577;DHT22;5844;51.496;6.788;2022-09-09T11:07:10;20.20;99.90
11577;DHT22;5844;51.496;6.788;2022-09-09T11:09:45;20.40;99.90
11577;DHT22;5844;51.496;6.788;2022-09-09T11:12:18;20.50;99.90
11577;DHT22;5844;51.496;6.788;2022-09-09T11:14:50;20.70;99.90
11577;DHT22;5844;51.496;6.788;2022-09-09T11:17:33;20.80;99.90
11577;DHT22;5844;51.496;6.788;2022-09-09T11:20:02;20.60;99.90
11577;DHT22;5844;51.496;6.788;2022-09-09T11:22:37;20.50;99.90
11577;DHT22;5844;51.496;6.788;2022-09-09T11:25:26;20.50;99.90
11577;DHT22;5844;51.496;6.788;2022-09-09T11:33:57;20.80;99.90
11577;DHT22;5844;51.496;6.788;2022-09-09T11:42:20;21.20;99.90
11577;DHT22;5844;51.496;6.788;2022-09-09T11:44:46;21.00;99.90
11577;DHT22;5844;51.496;6.788;2022-09-09T11:47:27;21.20;99.90
11577;DHT22;5844;51.496;6.788;2022-09-09T11:52:43;21.50;8.80
11577;DHT22;5844;51.496;6.788;2022-09-09T11:55:31;21.30;14.90
11577;DHT22;5844;51.496;6.788;2022-09-09T12:00:46;20.90;99.90
11577;DHT22;5844;51.496;6.788;2022-09-09T12:05:57;20.70;99.90
11577;DHT22;5844;51.496;6.788;2022-09-09T12:08:28;20.70;99.90
11577;DHT22;5844;51.496;6.788;2022-09-09T12:10:57;20.80;99.90
11577;DHT22;5844;51.496;6.788;2022-09-09T12:13:26;21.00;99.90
11577;DHT22;5844;51.496;6.788;2022-09-09T12:15:54;20.90;99.90
11577;DHT22;5844;51.496;6.788;2022-09-09T12:18:35;20.80;99.90
11577;DHT22;5844;51.496;6.788;2022-09-09T12:21:23;20.70;99.90
11577;DHT22;5844;51.496;6.788;2022-09-09T12:24:09;20.60;99.90
11577;DHT22;5844;51.496;6.788;2022-09-09T12:26:43;20.50;99.90
11577;DHT22;5844;51.496;6.788;2022-09-09T12:32:07;20.70;99.90
11577;DHT22;5844;51.496;6.788;2022-09-09T12:34:53;21.00;99.90
11577;DHT22;5844;51.496;6.788;2022-09-09T12:37:37;21.00;99.90
11577;DHT22;5844;51.496;6.788;2022-09-09T12:40:22;20.70;99.90
11577;DHT22;5844;51.496;6.788;2022-09-09T12:42:48;19.70;1.00
11577;DHT22;5844;51.496;6.788;2022-09-09T12:45:20;18.70;1.00
11577;DHT22;5844;51.496;6.788;2022-09-09T12:50:22;18.60;1.00
11577;DHT22;5844;51.496;6.788;2022-09-09T12:52:53;18.70;1.00
11577;DHT22;5844;51.496;6.788;2022-09-09T12:55:31;18.60;1.00
11577;DHT22;5844;51.496;6.788;2022-09-09T12:57:59;18.50;1.00
11577;DHT22;5844;51.496;6.788;2022-09-09T13:00:26;18.40;1.00
11577;DHT22;5844;51.496;6.788;2022-09-09T13:02:58;18.40;1.00
11577;DHT22;5844;51.496;6.788;2022-09-09T13:05:35;18.30;1.00
11577;DHT22;5844;51.496;6.788;2022-09-09T13:08:03;18.20;1.00
11577;DHT22;5844;51.496;6.788;2022-09-09T13:10:33;18.10;1.00
11577;DHT22;5844;51.496;6.788;2022-09-09T13:13:00;18.10;1.00
11577;DHT22;5844;51.496;6.788;2022-09-09T13:15:28;18.10;1.00
11577;DHT22;5844;51.496;6.788;2022-09-09T13:17:57;18.10;1.00
11577;DHT22;5844;51.496;6.788;2022-09-09T13:20:23;18.30;1.00
11577;DHT22;5844;51.496;6.788;2022-09-09T13:22:50;18.50;1.00
11577;DHT22;5844;51.496;6.788;2022-09-09T13:28:23;18.70;1.00
11577;DHT22;5844;51.496;6.788;2022-09-09T13:31:01;18.80;1.00
11577;DHT22;5844;51.496;6.788;2022-09-09T13:33:36;20.40;1.00
11577;DHT22;5844;51.496;6.788;2022-09-09T13:36:09;19.40;1.00
11577;DHT22;5844;51.496;6.788;2022-09-09T13:38:40;20.10;1.00
11577;DHT22;5844;51.496;6.788;2022-09-09T13:41:23;21.40;1.00
11577;DHT22;5844;51.496;6.788;2022-09-09T13:43:49;22.90;1.00
11577;DHT22;5844;51.496;6.788;2022-09-09T13:46:35;23.30;1.00
11577;DHT22;5844;51.496;6.788;2022-09-09T13:49:19;23.30;1.00
11577;DHT22;5844;51.496;6.788;2022-09-09T13:52:03;22.70;1.00
11577;DHT22;5844;51.496;6.788;2022-09-09T13:54:30;22.70;1.00
11577;DHT22;5844;51.496;6.788;2022-09-09T13:56:56;23.80;1.00
11577;DHT22;5844;51.496;6.788;2022-09-09T13:59:21;24.20;1.00
11577;DHT22;5844;51.496;6.788;2022-09-09T14:01:48;24.80;1.00
11577;DHT22;5844;51.496;6.788;2022-09-09T14:04:18;23.90;1.00
11577;DHT22;5844;51.496;6.788;2022-09-09T14:06:46;23.40;1.00
11577;DHT22;5844;51.496;6.788;2022-09-09T14:09:15;22.90;1.00
11577;DHT22;5844;51.496;6.788;2022-09-09T14:11:42;23.00;1.00
11577;DHT22;5844;51.496;6.788;2022-09-09T14:14:08;23.00;1.00
11577;DHT22;5844;51.496;6.788;2022-09-09T14:16:34;22.30;1.00
11577;DHT22;5844;51.496;6.788;2022-09-09T14:19:00;21.70;1.00
11577;DHT22;5844;51.496;6.788;2022-09-09T14:21:27;21.30;1.00
11577;DHT22;5844;51.496;6.788;2022-09-09T14:23:53;21.00;1.00
11577;DHT22;5844;51.496;6.788;2022-09-09T14:26:19;20.70;1.00
11577;DHT22;5844;51.496;6.788;2022-09-09T14:28:46;20.00;1.00
11577;DHT22;5844;51.496;6.788;2022-09-09T14:31:13;19.60;1.00
11577;DHT22;5844;51.496;6.788;2022-09-09T14:33:39;19.80;1.00
11577;DHT22;5844;51.496;6.788;2022-09-09T14:36:05;20.30;1.00
11577;DHT22;5844;51.496;6.788;2022-09-09T14:38:35;20.00;1.00
11577;DHT22;5844;51.496;6.788;2022-09-09T14:41:10;19.60;1.00
11577;DHT22;5844;51.496;6.788;2022-09-09T14:43:40;19.40;1.00
11577;DHT22;5844;51.496;6.788;2022-09-09T14:46:13;19.20;1.00
11577;DHT22;5844;51.496;6.788;2022-09-09T14:48:40;19.10;1.00
11577;DHT22;5844;51.496;6.788;2022-09-09T14:51:10;18.60;1.00
11577;DHT22;5844;51.496;6.788;2022-09-09T14:53:36;18.20;1.00
11577;DHT22;5844;51.496;6.788;2022-09-09T14:56:11;17.60;1.00
11577;DHT22;5844;51.496;6.788;2022-09-09T14:58:37;17.10;1.00
11577;DHT22;5844;51.496;6.788;2022-09-09T15:01:10;16.70;1.00
11577;DHT22;5844;51.496;6.788;2022-09-09T15:03:36;16.50;1.00
11577;DHT22;5844;51.496;6.788;2022-09-09T15:06:12;16.30;80.90
11577;DHT22;5844;51.496;6.788;2022-09-09T15:08:41;16.10;99.90
11577;DHT22;5844;51.496;6.788;2022-09-09T15:11:07;16.00;99.90
11577;DHT22;5844;51.496;6.788;2022-09-09T15:13:38;16.00;99.90
11577;DHT22;5844;51.496;6.788;2022-09-09T15:16:09;15.90;99.90
11577;DHT22;5844;51.496;6.788;2022-09-09T15:18:36;15.90;99.90
11577;DHT22;5844;51.496;6.788;2022-09-09T15:21:04;15.90;99.90
11577;DHT22;5844;51.496;6.788;2022-09-09T15:23:34;15.90;99.90
11577;DHT22;5844;51.496;6.788;2022-09-09T15:26:00;15.90;99.90
11577;DHT22;5844;51.496;6.788;2022-09-09T15:28:25;16.00;99.90
11577;DHT22;5844;51.496;6.788;2022-09-09T15:30:52;16.10;99.90
11577;DHT22;5844;51.496;6.788;2022-09-09T15:33:19;16.30;99.90
11577;DHT22;5844;51.496;6.788;2022-09-09T15:35:45;16.70;99.90
11577;DHT22;5844;51.496;6.788;2022-09-09T15:38:11;17.00;99.90
11577;DHT22;5844;51.496;6.788;2022-09-09T15:40:39;17.40;99.90
11577;DHT22;5844;51.496;6.788;2022-09-09T15:43:06;17.70;99.90
11577;DHT22;5844;51.496;6.788;2022-09-09T15:45:32;18.30;99.90
11577;DHT22;5844;51.496;6.788;2022-09-09T15:48:01;19.70;99.90
11577;DHT22;5844;51.496;6.788;2022-09-09T15:50:27;21.50;99.90
11577;DHT22;5844;51.496;6.788;2022-09-09T15:53:00;23.40;13.20
11577;DHT22;5844;51.496;6.788;2022-09-09T15:55:26;24.00;1.00
11577;DHT22;5844;51.496;6.788;2022-09-09T15:57:52;24.10;1.00
11577;DHT22;5844;51.496;6.788;2022-09-09T16:00:18;23.90;1.00
11577;DHT22;5844;51.496;6.788;2022-09-09T16:02:46;23.60;1.00
11577;DHT22;5844;51.496;6.788;2022-09-09T16:05:12;23.40;1.00
11577;DHT22;5844;51.496;6.788;2022-09-09T16:07:38;23.10;1.00
11577;DHT22;5844;51.496;6.788;2022-09-09T16:10:03;22.60;1.00
11577;DHT22;5844;51.496;6.788;2022-09-09T16:12:29;22.00;1.00
11577;DHT22;5844;51.496;6.788;2022-09-09T16:14:55;21.30;1.00
11577;DHT22;5844;51.496;6.788;2022-09-09T16:17:21;20.70;1.00
11577;DHT22;5844;51.496;6.788;2022-09-09T16:19:46;20.20;1.00
11577;DHT22;5844;51.496;6.788;2022-09-09T16:22:12;19.80;1.00
11577;DHT22;5844;51.496;6.788;2022-09-09T16:24:40;19.50;1.00
11577;DHT22;5844;51.496;6.788;2022-09-09T16:27:06;19.20;1.00
11577;DHT22;5844;51.496;6.788;2022-09-09T16:29:32;19.00;1.00
11577;DHT22;5844;51.496;6.788;2022-09-09T16:31:58;18.70;1.00
11577;DHT22;5844;51.496;6.788;2022-09-09T16:34:25;18.60;1.00
11577;DHT22;5844;51.496;6.788;2022-09-09T16:36:51;18.50;1.00
11577;DHT22;5844;51.496;6.788;2022-09-09T16:39:19;18.40;1.00
11577;DHT22;5844;51.496;6.788;2022-09-09T16:41:47;18.30;1.00
11577;DHT22;5844;51.496;6.788;2022-09-09T16:44:15;18.30;1.00
11577;DHT22;5844;51.496;6.788;2022-09-09T16:46:43;18.30;2.90
11577;DHT22;5844;51.496;6.788;2022-09-09T16:49:13;18.20;1.00
11577;DHT22;5844;51.496;6.788;2022-09-09T16:51:45;18.20;10.90
11577;DHT22;5844;51.496;6.788;2022-09-09T16:54:12;18.10;1.00
11577;DHT22;5844;51.496;6.788;2022-09-09T16:56:41;18.00;2.50
11577;DHT22;5844;51.496;6.788;2022-09-09T16:59:10;17.90;28.00
11577;DHT22;5844;51.496;6.788;2022-09-09T17:01:38;17.80;23.80
11577;DHT22;5844;51.496;6.788;2022-09-09T17:04:08;17.80;99.90
11577;DHT22;5844;51.496;6.788;2022-09-09T17:06:35;17.70;99.90
11577;DHT22;5844;51.496;6.788;2022-09-09T17:09:04;17.60;99.90
11577;DHT22;5844;51.496;6.788;2022-09-09T17:11:30;17.60;99.90
11577;DHT22;5844;51.496;6.788;2022-09-09T17:13:56;17.60;99.90
11577;DHT22;5844;51.496;6.788;2022-09-09T17:16:25;17.70;99.90
11577;DHT22;5844;51.496;6.788;2022-09-09T17:18:53;17.70;99.90
11577;DHT22;5844;51.496;6.788;2022-09-09T17:21:22;17.60;99.90
11577;DHT22;5844;51.496;6.788;2022-09-09T17:23:49;17.50;99.90
11577;DHT22;5844;51.496;6.788;2022-09-09T17:26:18;17.50;99.90
11577;DHT22;5844;51.496;6.788;2022-09-09T17:28:44;17.50;99.90
11577;DHT22;5844;51.496;6.788;2022-09-09T17:31:17;17.50;99.90
11577;DHT22;5844;51.496;6.788;2022-09-09T17:33:46;17.40;99.90
11577;DHT22;5844;51.496;6.788;2022-09-09T17:38:40;17.30;99.90
11577;DHT22;5844;51.496;6.788;2022-09-09T17:41:17;17.30;99.90
11577;DHT22;5844;51.496;6.788;2022-09-09T17:43:43;17.30;99.90
11577;DHT22;5844;51.496;6.788;2022-09-09T17:46:18;17.20;99.90
11577;DHT22;5844;51.496;6.788;2022-09-09T17:48:47;17.20;99.90
11577;DHT22;5844;51.496;6.788;2022-09-09T17:51:15;17.20;99.90
11577;DHT22;5844;51.496;6.788;2022-09-09T17:53:46;17.20;99.90
11577;DHT22;5844;51.496;6.788;2022-09-09T17:56:14;17.20;99.90
11577;DHT22;5844;51.496;6.788;2022-09-09T17:58:40;17.20;99.90
11577;DHT22;5844;51.496;6.788;2022-09-09T18:01:14;17.20;99.90
11577;DHT22;5844;51.496;6.788;2022-09-09T18:03:43;17.10;99.90
11577;DHT22;5844;51.496;6.788;2022-09-09T18:06:17;17.00;99.90
11577;DHT22;5844;51.496;6.788;2022-09-09T18:08:48;17.00;99.90
11577;DHT22;5844;51.496;6.788;2022-09-09T18:11:15;17.00;99.90
11577;DHT22;5844;51.496;6.788;2022-09-09T18:13:42;16.90;99.90